Time;durP1;ratioP1;P1;durP2;ratioP2;P2;SDS_P1;SDS_P2;PMS_P1;PMS_P2;Temp;Humidity;BMP_temperature;BMP_pressure;BME280_temperature;BME280_humidity;BME280_pressure;Samples;Min_cycle;Max_cycle;Signal;HPM_P1;HPM_P2
2022/12/20 00:02:14;;;;;;;6.32;1.48;;;;;;;5.87;100.00;98915.44;5001752;28;20349;-77
2022/12/20 00:04:39;;;;;;;3.78;1.48;;;;;;;5.81;100.00;98913.53;5002041;28;20036;-77
2022/12/20 00:07:05;;;;;;;5.07;1.83;;;;;;;5.83;100.00;98912.34;5001925;28;20041;-76
2022/12/20 00:09:33;;;;;;;5.68;1.50;;;;;;;5.91;100.00;98916.72;5002020;28;20029;-76
2022/12/20 00:11:58;;;;;;;7.00;2.25;;;;;;;5.90;100.00;98917.72;5002124;28;20037;-76
2022/12/20 00:14:24;;;;;;;8.30;2.05;;;;;;;5.87;100.00;98924.25;5001885;28;20103;-76
2022/12/20 00:16:50;;;;;;;10.07;1.98;;;;;;;5.84;100.00;98924.66;5001760;28;20076;-76
2022/12/20 00:19:16;;;;;;;2.47;1.33;;;;;;;5.84;100.00;98931.81;5001971;28;20040;-77
2022/12/20 00:21:41;;;;;;;4.60;2.13;;;;;;;5.82;100.00;98928.50;5017604;28;20380;-77
2022/12/20 00:24:07;;;;;;;4.10;1.73;;;;;;;5.91;100.00;98930.88;5034002;28;20460;-76
2022/12/20 00:26:34;;;;;;;10.60;2.20;;;;;;;6.04;100.00;98940.88;5001684;28;20041;-77
2022/12/20 00:29:00;;;;;;;5.53;2.28;;;;;;;6.22;100.00;98939.59;5001792;28;20103;-77
2022/12/20 00:31:28;;;;;;;7.50;1.95;;;;;;;6.32;100.00;98930.22;5050407;28;20034;-77
2022/12/20 00:33:55;;;;;;;4.68;1.40;;;;;;;6.37;100.00;98932.31;5001633;28;20064;-76
2022/12/20 00:36:23;;;;;;;5.40;1.75;;;;;;;6.32;100.00;98948.09;5017007;28;20068;-75
2022/12/20 00:38:50;;;;;;;9.02;1.77;;;;;;;6.23;100.00;98949.25;5033924;28;20511;-76
2022/12/20 00:41:19;;;;;;;5.63;2.53;;;;;;;6.20;100.00;98949.66;5033918;28;20029;-77
2022/12/20 00:43:45;;;;;;;1.73;1.00;;;;;;;6.03;100.00;98947.22;5001677;28;20083;-77
2022/12/20 00:46:13;;;;;;;7.30;1.80;;;;;;;5.91;100.00;98948.72;5001485;28;20148;-76
2022/12/20 00:48:39;;;;;;;1.98;1.02;;;;;;;5.71;100.00;98944.00;5001268;28;20033;-76
2022/12/20 00:51:08;;;;;;;7.57;2.25;;;;;;;5.64;100.00;98950.31;5001076;28;20448;-76
2022/12/20 00:53:34;;;;;;;8.65;1.77;;;;;;;5.57;100.00;98950.22;5017108;28;20032;-77
2022/12/20 00:56:00;;;;;;;4.90;1.60;;;;;;;5.52;100.00;98949.94;5017438;28;20098;-76
2022/12/20 00:58:26;;;;;;;3.90;1.88;;;;;;;5.59;100.00;98953.53;5033802;28;20034;-75
2022/12/20 01:00:52;;;;;;;3.38;1.30;;;;;;;5.69;100.00;98956.72;5000954;28;20042;-77
2022/12/20 01:03:20;;;;;;;2.95;1.10;;;;;;;5.71;100.00;98956.50;5017069;28;20179;-76
2022/12/20 01:05:50;;;;;;;14.55;2.45;;;;;;;5.76;100.00;98951.44;5000996;28;20463;-76
2022/12/20 01:08:16;;;;;;;4.45;2.03;;;;;;;5.93;100.00;98958.22;5017109;28;20122;-76
2022/12/20 01:10:41;;;;;;;6.53;1.90;;;;;;;6.03;100.00;98963.22;5000615;28;20064;-76
2022/12/20 01:13:07;;;;;;;9.45;2.42;;;;;;;5.98;100.00;98957.66;5017235;28;20491;-76
2022/12/20 01:15:33;;;;;;;5.65;1.30;;;;;;;6.02;100.00;98966.94;5017146;28;20037;-76
2022/12/20 01:17:58;;;;;;;10.13;1.70;;;;;;;6.06;100.00;98970.88;5033278;28;20034;-77
2022/12/20 01:20:24;;;;;;;5.07;1.60;;;;;;;6.01;100.00;98970.63;5000716;28;20025;-76
2022/12/20 01:22:50;;;;;;;1.90;1.02;;;;;;;6.01;100.00;98973.28;5033433;28;20029;-76
2022/12/20 01:25:15;;;;;;;3.47;1.55;;;;;;;6.09;100.00;98973.16;5033000;28;20040;-77
2022/12/20 01:27:41;;;;;;;6.50;1.45;;;;;;;6.19;100.00;98969.34;5000614;28;20136;-76
2022/12/20 01:30:07;;;;;;;6.25;1.48;;;;;;;6.34;100.00;98951.41;5000814;28;20037;-76
2022/12/20 01:32:34;;;;;;;2.53;1.05;;;;;;;6.25;100.00;98963.25;5033188;28;20478;-76
2022/12/20 01:35:00;;;;;;;3.83;1.48;;;;;;;6.13;100.00;98974.41;5000073;28;20060;-76
2022/12/20 01:37:26;;;;;;;10.65;2.45;;;;;;;6.08;100.00;98976.81;5000529;28;20056;-76
2022/12/20 01:39:55;;;;;;;5.90;2.88;;;;;;;6.01;100.00;98970.63;5032834;28;20120;-76
2022/12/20 01:42:21;;;;;;;5.78;1.40;;;;;;;5.98;100.00;98984.34;4999835;28;20037;-76
2022/12/20 01:44:55;;;;;;;3.58;1.50;;;;;;;5.99;100.00;98977.16;4999776;28;20045;-76
2022/12/20 01:47:20;;;;;;;8.63;1.48;;;;;;;5.94;100.00;98972.38;5000314;28;20056;-76
2022/12/20 01:49:47;;;;;;;5.97;1.58;;;;;;;5.94;100.00;98978.53;5016534;28;20080;-77
2022/12/20 01:52:16;;;;;;;5.45;1.80;;;;;;;6.01;100.00;98977.81;5000238;28;20036;-77
2022/12/20 01:54:54;;;;;;;5.03;1.05;;;;;;;6.03;100.00;98989.09;5016371;28;20034;-77
2022/12/20 01:57:26;;;;;;;13.80;1.70;;;;;;;5.86;100.00;98965.28;5016555;28;20427;-77
2022/12/20 01:59:52;;;;;;;6.70;1.65;;;;;;;5.88;100.00;98978.47;5016322;28;20041;-76
2022/12/20 02:02:18;;;;;;;2.33;0.77;;;;;;;5.88;100.00;98984.63;4999796;28;20509;-76
2022/12/20 02:04:44;;;;;;;3.17;1.17;;;;;;;5.91;100.00;98989.56;4999840;28;20033;-77
2022/12/20 02:07:13;;;;;;;4.13;1.58;;;;;;;5.84;100.00;98987.84;5016408;28;20034;-76
2022/12/20 02:09:40;;;;;;;9.95;1.85;;;;;;;5.88;100.00;98999.81;5032319;28;20430;-76
2022/12/20 02:12:15;;;;;;;2.20;1.10;;;;;;;5.86;100.00;98999.97;4998472;28;20041;-76
2022/12/20 02:15:12;;;;;;;7.63;2.13;;;;;;;5.78;100.00;98989.41;5014873;28;20079;-76
2022/12/20 02:18:12;;;;;;;5.70;2.42;;;;;;;5.82;100.00;99003.19;5016440;28;20029;-77
2022/12/20 02:21:15;;;;;;;9.55;2.42;;;;;;;5.77;100.00;98995.78;5032254;28;20036;-77
2022/12/20 02:23:51;;;;;;;13.50;2.10;;;;;;;5.75;100.00;99005.81;5016269;28;20048;-77
2022/12/20 02:26:54;;;;;;;2.45;1.00;;;;;;;5.79;100.00;99011.56;5032259;28;20031;-78
2022/12/20 02:29:36;;;;;;;5.47;1.25;;;;;;;5.73;100.00;99016.66;5016001;28;20030;-77
2022/12/20 02:32:24;;;;;;;8.80;1.90;;;;;;;5.84;100.00;99007.34;5015994;28;20038;-77
2022/12/20 02:34:49;;;;;;;7.10;2.17;;;;;;;6.06;100.00;99002.91;5031951;28;20040;-77
2022/12/20 02:37:15;;;;;;;7.20;1.50;;;;;;;6.26;100.00;99019.09;5015557;28;20033;-76
2022/12/20 02:39:41;;;;;;;2.95;1.00;;;;;;;6.30;100.00;99030.22;4999619;28;20033;-77
2022/12/20 02:42:10;;;;;;;4.82;1.80;;;;;;;6.25;100.00;99024.63;5015308;28;20132;-77
2022/12/20 02:47:30;;;;;;;3.75;1.15;;;;;;;6.32;100.00;99038.84;5004998;28;20041;-76
2022/12/20 02:49:56;;;;;;;1.55;0.85;;;;;;;6.39;100.00;99045.09;5015772;28;20137;-76
2022/12/20 02:52:25;;;;;;;2.35;1.17;;;;;;;6.28;100.00;99059.78;5032429;28;20032;-76
2022/12/20 02:54:53;;;;;;;4.00;1.27;;;;;;;6.08;100.00;99069.41;5015749;28;20133;-75
2022/12/20 02:57:28;;;;;;;0.80;0.80;;;;;;;5.81;100.00;99055.72;5015438;28;20038;-75
2022/12/20 03:00:10;;;;;;;1.00;0.93;;;;;;;5.61;100.00;99052.81;5017452;28;20553;-75
2022/12/20 03:05:22;;;;;;;0.50;0.50;;;;;;;5.58;100.00;99071.00;5035719;28;20480;-74
2022/12/20 03:07:48;;;;;;;0.50;0.50;;;;;;;5.47;100.00;99074.97;5035741;28;20419;-75
2022/12/20 03:10:15;;;;;;;0.77;0.77;;;;;;;5.36;100.00;99067.44;5003079;28;20099;-74
2022/12/20 03:12:41;;;;;;;0.50;0.50;;;;;;;5.27;100.00;99056.06;5003097;28;20033;-75
2022/12/20 03:15:08;;;;;;;0.40;0.40;;;;;;;5.37;100.00;99066.41;5003153;28;20037;-75
2022/12/20 03:17:34;;;;;;;0.45;0.45;;;;;;;5.32;100.00;99067.00;5035754;28;20029;-75
2022/12/20 03:20:00;;;;;;;0.40;0.40;;;;;;;5.19;100.00;99064.13;5019327;28;20379;-74
2022/12/20 03:22:26;;;;;;;0.50;0.50;;;;;;;5.07;100.00;99071.72;5018881;28;20025;-75
2022/12/20 03:24:52;;;;;;;0.60;0.60;;;;;;;4.96;100.00;99077.50;5002939;28;20100;-75
2022/12/20 03:27:17;;;;;;;0.50;0.50;;;;;;;4.93;100.00;99077.88;5018763;28;20040;-75
2022/12/20 03:29:44;;;;;;;0.50;0.50;;;;;;;4.85;100.00;99076.09;5002560;28;20446;-75
2022/12/20 03:32:11;;;;;;;0.50;0.50;;;;;;;4.84;100.00;99075.28;5018785;28;20087;-75
2022/12/20 03:34:37;;;;;;;0.40;0.40;;;;;;;4.81;100.00;99070.28;5002719;28;20033;-75
2022/12/20 03:37:03;;;;;;;0.40;0.40;;;;;;;4.76;100.00;99072.69;5002714;28;20033;-76
2022/12/20 03:39:29;;;;;;;0.40;0.40;;;;;;;4.81;100.00;99064.97;5002424;28;20467;-75
2022/12/20 03:41:54;;;;;;;0.40;0.40;;;;;;;4.85;100.00;99066.28;5018461;28;20076;-74
2022/12/20 03:44:20;;;;;;;0.40;0.40;;;;;;;5.03;100.00;99068.59;5018442;28;20033;-75
2022/12/20 03:46:46;;;;;;;0.40;0.40;;;;;;;5.16;100.00;99070.66;5002238;28;20044;-75
2022/12/20 03:49:14;;;;;;;0.40;0.40;;;;;;;5.09;100.00;99072.38;5018322;28;20021;-75
2022/12/20 03:51:40;;;;;;;0.40;0.40;;;;;;;5.00;100.00;99068.97;5002692;28;20057;-75
2022/12/20 03:54:06;;;;;;;0.40;0.40;;;;;;;5.01;100.00;99073.28;5018230;28;20064;-75
2022/12/20 03:56:32;;;;;;;0.45;0.45;;;;;;;4.96;100.00;99067.66;5035800;28;20045;-75
2022/12/20 03:58:57;;;;;;;0.30;0.30;;;;;;;4.82;100.00;99074.63;5002293;28;20364;-75
2022/12/20 04:01:25;;;;;;;0.40;0.40;;;;;;;4.86;100.00;99069.75;5034925;28;20034;-75
2022/12/20 04:03:53;;;;;;;0.50;0.50;;;;;;;4.80;100.00;99075.81;5018380;28;20037;-75
2022/12/20 04:06:19;;;;;;;0.52;0.50;;;;;;;4.84;100.00;99077.94;5018135;28;20533;-74
2022/12/20 04:08:45;;;;;;;0.47;0.47;;;;;;;4.88;100.00;99070.41;5002028;28;20912;-75
2022/12/20 04:11:16;;;;;;;0.43;0.43;;;;;;;5.03;100.00;99097.09;5001127;28;20479;-74
2022/12/20 04:13:51;;;;;;;0.50;0.50;;;;;;;4.98;100.00;99094.13;5034796;28;20045;-75
2022/12/20 04:16:19;;;;;;;0.45;0.45;;;;;;;4.96;100.00;99107.63;5051059;28;20033;-74
2022/12/20 04:18:45;;;;;;;0.40;0.40;;;;;;;4.91;100.00;99104.66;5017819;28;20029;-75
2022/12/20 04:21:11;;;;;;;0.40;0.40;;;;;;;4.99;100.00;99117.09;5018141;28;20033;-76
2022/12/20 04:23:39;;;;;;;0.40;0.40;;;;;;;4.90;100.00;99113.69;5018023;28;20063;-74
2022/12/20 04:26:06;;;;;;;0.40;0.40;;;;;;;4.83;100.00;99110.88;5017663;28;20063;-74
2022/12/20 04:28:32;;;;;;;1.45;1.40;;;;;;;4.78;100.00;99105.28;5017495;28;20048;-75
2022/12/20 04:30:58;;;;;;;0.50;0.50;;;;;;;4.88;100.00;99112.19;5001392;28;20034;-74
2022/12/20 04:33:24;;;;;;;0.50;0.50;;;;;;;4.89;100.00;99121.84;5017351;28;20030;-74
2022/12/20 04:35:50;;;;;;;0.40;0.40;;;;;;;4.75;100.00;99100.31;5034171;28;20025;-74
2022/12/20 04:38:17;;;;;;;0.40;0.40;;;;;;;4.79;100.00;99111.41;5001566;28;20038;-75
2022/12/20 04:40:43;;;;;;;0.40;0.40;;;;;;;4.74;100.00;99114.66;5017698;28;20041;-75
2022/12/20 04:43:09;;;;;;;0.50;0.50;;;;;;;4.70;100.00;99115.16;5034191;28;20048;-74
2022/12/20 04:45:34;;;;;;;0.47;0.47;;;;;;;4.69;100.00;99122.34;5034259;28;20052;-74
2022/12/20 04:48:00;;;;;;;0.50;0.50;;;;;;;4.63;100.00;99123.88;5001388;28;20356;-74
2022/12/20 04:50:26;;;;;;;0.50;0.50;;;;;;;4.55;100.00;99120.44;5001305;28;20072;-75
2022/12/20 04:55:39;;;;;;;0.40;0.40;;;;;;;4.44;100.00;99128.81;5034035;28;20041;-75
2022/12/20 04:58:06;;;;;;;0.40;0.40;;;;;;;4.34;100.00;99121.06;5001207;28;20078;-75
2022/12/20 05:00:32;;;;;;;0.40;0.40;;;;;;;4.27;100.00;99125.44;5001020;28;20033;-75
2022/12/20 05:02:58;;;;;;;0.40;0.40;;;;;;;4.18;100.00;99117.50;5001124;28;20044;-75
2022/12/20 05:05:24;;;;;;;0.40;0.40;;;;;;;4.08;100.00;99124.06;5033327;28;20037;-74
2022/12/20 05:07:50;;;;;;;0.40;0.40;;;;;;;4.01;100.00;99123.09;5001039;28;20534;-75
2022/12/20 05:10:16;;;;;;;0.30;0.30;;;;;;;4.06;100.00;99134.03;5017038;28;20041;-75
2022/12/20 05:12:42;;;;;;;0.50;0.50;;;;;;;4.25;100.00;99130.09;5016956;28;20102;-75
2022/12/20 05:15:08;;;;;;;0.40;0.40;;;;;;;4.53;100.00;99149.06;5017141;28;20030;-75
2022/12/20 05:17:34;;;;;;;0.50;0.50;;;;;;;4.79;100.00;99146.03;5033630;28;20487;-74
2022/12/20 05:19:59;;;;;;;0.40;0.40;;;;;;;4.85;100.00;99145.34;5033517;28;20127;-75
2022/12/20 05:27:55;;;;;;;0.40;0.40;;;;;;;4.80;100.00;99137.88;5019509;28;20030;-75
2022/12/20 05:30:21;;;;;;;0.40;0.40;;;;;;;4.77;100.00;99132.09;5000583;28;20123;-74
2022/12/20 05:32:47;;;;;;;0.40;0.40;;;;;;;4.74;100.00;99135.13;5033657;28;20033;-75
2022/12/20 05:35:13;;;;;;;0.50;0.50;;;;;;;4.66;100.00;99140.47;5016328;28;20388;-75
2022/12/20 05:37:39;;;;;;;0.45;0.45;;;;;;;4.55;100.00;99136.41;5016776;28;20056;-75
2022/12/20 05:40:05;;;;;;;0.40;0.40;;;;;;;4.46;100.00;99132.16;5032945;28;20037;-75
2022/12/20 05:42:31;;;;;;;0.50;0.50;;;;;;;4.31;100.00;99135.56;5016347;28;20467;-75
2022/12/20 05:44:57;;;;;;;0.50;0.50;;;;;;;4.27;100.00;99144.88;5033039;28;20091;-75
2022/12/20 05:47:23;;;;;;;0.40;0.40;;;;;;;4.16;100.00;99142.63;5000288;28;20055;-74
2022/12/20 05:49:50;;;;;;;0.50;0.50;;;;;;;4.10;100.00;99132.66;5049152;28;20038;-75
2022/12/20 05:52:15;;;;;;;0.40;0.40;;;;;;;4.07;100.00;99130.34;5000279;28;20144;-75
2022/12/20 05:54:41;;;;;;;0.40;0.40;;;;;;;4.02;100.00;99124.72;5000196;28;20037;-75
2022/12/20 05:57:06;;;;;;;0.40;0.40;;;;;;;4.02;100.00;99132.72;5032978;28;20037;-75
2022/12/20 05:59:32;;;;;;;0.40;0.40;;;;;;;3.92;100.00;99130.28;5000128;28;20036;-74
2022/12/20 06:01:58;;;;;;;0.40;0.40;;;;;;;3.87;100.00;99136.09;5032267;28;20034;-76
2022/12/20 06:04:23;;;;;;;0.50;0.50;;;;;;;3.89;100.00;99125.28;5000094;28;20049;-75
2022/12/20 06:06:50;;;;;;;0.40;0.40;;;;;;;3.91;100.00;99133.91;5049391;28;20090;-75
2022/12/20 06:09:15;;;;;;;0.40;0.40;;;;;;;3.87;100.00;99117.50;5016326;28;20396;-76
2022/12/20 06:11:41;;;;;;;0.40;0.40;;;;;;;3.84;100.00;99122.34;4999655;28;20034;-75
2022/12/20 06:14:07;;;;;;;1.55;0.70;;;;;;;3.78;100.00;99123.84;5016245;28;20044;-76
2022/12/20 06:16:32;;;;;;;0.40;0.40;;;;;;;3.82;100.00;99143.78;5015953;28;20033;-75
2022/12/20 06:18:59;;;;;;;0.70;0.70;;;;;;;3.92;100.00;99135.59;5016120;28;20038;-75
2022/12/20 06:21:27;;;;;;;4.03;0.70;;;;;;;4.27;100.00;99176.81;5015983;28;20026;-75
2022/12/20 06:23:53;;;;;;;2.70;0.77;;;;;;;4.37;100.00;99184.59;5032390;28;20052;-75
2022/12/20 06:26:22;;;;;;;1.75;0.75;;;;;;;4.35;100.00;99190.06;5032138;28;20025;-76
2022/12/20 06:28:51;;;;;;;2.53;0.50;;;;;;;4.38;100.00;99194.22;5033283;28;20061;-75
2022/12/20 06:31:17;;;;;;;0.50;0.50;;;;;;;4.38;100.00;99188.91;5032431;28;20136;-75
2022/12/20 06:33:43;;;;;;;5.43;0.65;;;;;;;4.39;100.00;99193.22;4999791;28;20112;-74
2022/12/20 06:36:09;;;;;;;1.55;0.75;;;;;;;4.49;100.00;99204.47;5019619;28;20432;-75
2022/12/20 06:38:35;;;;;;;0.40;0.40;;;;;;;4.52;100.00;99179.34;5036569;28;20041;-75
2022/12/20 06:41:01;;;;;;;0.63;0.63;;;;;;;4.41;100.00;99188.56;5052516;28;20475;-74
2022/12/20 06:43:27;;;;;;;1.02;0.60;;;;;;;4.31;100.00;99201.25;5019930;28;20041;-75
2022/12/20 06:45:53;;;;;;;0.50;0.50;;;;;;;4.24;100.00;99205.63;5019577;28;20120;-75
2022/12/20 06:48:20;;;;;;;0.45;0.45;;;;;;;4.20;100.00;99207.78;5003571;28;20048;-74
2022/12/20 06:50:50;;;;;;;0.40;0.40;;;;;;;4.10;100.00;99188.53;5003692;28;20234;-75
2022/12/20 06:53:15;;;;;;;0.40;0.40;;;;;;;4.15;100.00;99200.34;5019620;28;20575;-75
2022/12/20 06:55:41;;;;;;;0.40;0.40;;;;;;;4.10;100.00;99188.53;5036152;28;20029;-74
2022/12/20 06:58:07;;;;;;;0.40;0.40;;;;;;;4.04;100.00;99197.19;5035726;28;20030;-75
2022/12/20 07:00:33;;;;;;;0.32;0.32;;;;;;;3.93;100.00;99199.22;5003337;28;20460;-74
2022/12/20 07:02:59;;;;;;;0.40;0.40;;;;;;;3.82;100.00;99202.25;5019628;28;20045;-75
2022/12/20 07:05:27;;;;;;;0.40;0.40;;;;;;;3.67;100.00;99207.44;5036094;28;20033;-74
2022/12/20 07:07:53;;;;;;;0.50;0.50;;;;;;;3.59;100.00;99198.66;5052706;28;20042;-74
2022/12/20 07:10:18;;;;;;;0.43;0.43;;;;;;;3.49;100.00;99194.38;5019379;28;20033;-74
2022/12/20 07:12:44;;;;;;;0.40;0.40;;;;;;;3.57;100.00;99216.59;5035816;28;20037;-75
2022/12/20 07:15:13;;;;;;;0.40;0.40;;;;;;;3.58;100.00;99221.75;5002840;28;20064;-75
2022/12/20 07:17:55;;;;;;;0.40;0.40;;;;;;;3.62;100.00;99215.09;5020004;28;20030;-75
2022/12/20 07:20:20;;;;;;;0.40;0.40;;;;;;;3.72;100.00;99228.19;5035453;28;20389;-75
2022/12/20 07:22:47;;;;;;;0.50;0.50;;;;;;;3.67;100.00;99227.88;5002972;28;20037;-75
2022/12/20 07:25:14;;;;;;;0.40;0.40;;;;;;;3.52;100.00;99239.22;5035747;28;20041;-74
2022/12/20 07:27:39;;;;;;;0.43;0.43;;;;;;;3.46;100.00;99242.50;5019201;28;20036;-74
2022/12/20 07:30:06;;;;;;;0.40;0.40;;;;;;;3.38;100.00;99231.06;5019398;28;20387;-74
2022/12/20 07:32:32;;;;;;;0.50;0.50;;;;;;;3.29;100.00;99219.63;5002410;28;20030;-74
2022/12/20 07:34:57;;;;;;;0.40;0.40;;;;;;;3.42;100.00;99237.72;5002788;28;20044;-74
2022/12/20 07:37:23;;;;;;;0.50;0.50;;;;;;;3.51;100.00;99234.88;5019075;28;20041;-75
2022/12/20 07:39:49;;;;;;;0.40;0.40;;;;;;;3.58;100.00;99234.22;5002715;28;20030;-75
2022/12/20 07:42:15;;;;;;;0.45;0.45;;;;;;;3.52;100.00;99230.41;5018576;28;20060;-74
2022/12/20 07:44:41;;;;;;;0.40;0.40;;;;;;;3.58;100.00;99239.53;5019014;28;20111;-75
2022/12/20 07:47:08;;;;;;;0.45;0.45;;;;;;;3.69;100.00;99240.00;5018541;28;20073;-75
2022/12/20 07:49:34;;;;;;;0.40;0.40;;;;;;;3.77;100.00;99227.69;5051550;28;20041;-74
2022/12/20 07:52:01;;;;;;;0.50;0.50;;;;;;;3.63;100.00;99207.97;5002467;28;20033;-75
2022/12/20 07:54:33;;;;;;;0.50;0.50;;;;;;;3.72;100.00;99217.56;5034948;28;20030;-74
2022/12/20 07:57:04;;;;;;;0.40;0.40;;;;;;;3.77;100.00;99212.56;5034997;28;20022;-75
2022/12/20 07:59:41;;;;;;;0.40;0.40;;;;;;;3.74;100.00;99212.91;5034881;28;20048;-75
2022/12/20 08:02:11;;;;;;;0.60;0.60;;;;;;;3.86;100.00;99205.41;5018382;28;20076;-75
2022/12/20 08:04:37;;;;;;;0.45;0.45;;;;;;;3.91;100.00;99219.00;5002124;28;20091;-75
2022/12/20 08:07:03;;;;;;;0.50;0.50;;;;;;;3.84;100.00;99205.59;5018427;28;20136;-75
2022/12/20 08:09:33;;;;;;;1.95;0.70;;;;;;;3.74;100.00;99203.09;5051230;28;20037;-75
2022/12/20 08:11:59;;;;;;;0.50;0.50;;;;;;;3.76;100.00;99221.56;5002184;28;20038;-75
2022/12/20 08:14:25;;;;;;;0.50;0.50;;;;;;;3.79;100.00;99226.53;5002017;28;20056;-75
2022/12/20 08:16:50;;;;;;;0.50;0.50;;;;;;;3.82;100.00;99239.47;5001996;28;20375;-75
2022/12/20 08:19:16;;;;;;;1.33;0.50;;;;;;;4.08;100.00;99267.69;5001870;28;20044;-75
2022/12/20 08:21:42;;;;;;;0.60;0.60;;;;;;;4.07;100.00;99266.84;5018011;28;20080;-75
2022/12/20 08:24:07;;;;;;;2.67;0.68;;;;;;;3.89;100.00;99263.56;5001840;28;20039;-75
2022/12/20 08:26:38;;;;;;;0.50;0.50;;;;;;;3.67;100.00;99259.78;5034265;28;20463;-75
2022/12/20 08:29:04;;;;;;;0.50;0.50;;;;;;;3.50;100.00;99264.28;5001421;28;20376;-75
2022/12/20 08:31:29;;;;;;;0.40;0.40;;;;;;;3.43;100.00;99260.63;5018180;28;20092;-74
2022/12/20 08:33:55;;;;;;;0.40;0.40;;;;;;;3.48;100.00;99266.28;5017932;28;20044;-75
2022/12/20 08:36:22;;;;;;;0.50;0.50;;;;;;;3.63;100.00;99283.22;5017595;28;20510;-75
2022/12/20 08:38:48;;;;;;;1.55;0.77;;;;;;;3.80;100.00;99284.00;5001784;28;20033;-75
2022/12/20 08:41:14;;;;;;;0.50;0.50;;;;;;;3.99;100.00;99320.03;5001487;28;20033;-74
2022/12/20 08:43:44;;;;;;;0.50;0.50;;;;;;;3.97;100.00;99312.25;5034332;28;20045;-75
2022/12/20 08:46:11;;;;;;;0.60;0.60;;;;;;;3.81;100.00;99311.44;5001810;28;20123;-75
2022/12/20 08:48:37;;;;;;;0.50;0.50;;;;;;;3.86;100.00;99317.06;5001421;28;20048;-75
2022/12/20 08:51:06;;;;;;;0.52;0.50;;;;;;;3.84;100.00;99314.59;5033615;28;20476;-75
2022/12/20 08:53:32;;;;;;;0.50;0.50;;;;;;;3.81;100.00;99299.00;5033751;28;20033;-75
2022/12/20 08:56:10;;;;;;;0.47;0.47;;;;;;;3.78;100.00;99304.63;5034533;28;20026;-75
2022/12/20 08:58:36;;;;;;;0.40;0.40;;;;;;;3.65;100.00;99296.31;5000566;28;20040;-75
2022/12/20 09:01:04;;;;;;;0.80;0.80;;;;;;;3.65;100.00;99314.94;5033377;28;20068;-75
2022/12/20 09:03:31;;;;;;;0.50;0.50;;;;;;;3.60;100.00;99317.25;5017060;28;20095;-75
2022/12/20 09:05:58;;;;;;;0.40;0.40;;;;;;;3.58;100.00;99319.25;5001107;28;20033;-75
2022/12/20 09:08:25;;;;;;;0.60;0.60;;;;;;;3.50;100.00;99317.44;5001191;28;20475;-74
2022/12/20 09:10:52;;;;;;;0.50;0.50;;;;;;;3.44;100.00;99312.75;5016835;28;20430;-74
2022/12/20 09:13:18;;;;;;;0.47;0.47;;;;;;;3.43;100.00;99319.91;5000901;28;20333;-74
2022/12/20 09:15:44;;;;;;;0.50;0.50;;;;;;;3.41;100.00;99323.72;5033510;28;20353;-75
2022/12/20 09:18:10;;;;;;;0.40;0.40;;;;;;;3.43;100.00;99317.25;5033626;28;20029;-74
2022/12/20 09:20:43;;;;;;;0.50;0.50;;;;;;;3.52;100.00;99316.28;5000651;28;20368;-75
2022/12/20 09:23:08;;;;;;;0.65;0.65;;;;;;;3.67;100.00;99318.25;5016930;28;20111;-74
2022/12/20 09:25:36;;;;;;;0.50;0.50;;;;;;;3.77;100.00;99310.94;5033453;28;20491;-74
2022/12/20 09:28:03;;;;;;;1.25;0.60;;;;;;;3.91;100.00;99325.38;5016993;28;20464;-74
2022/12/20 09:30:28;;;;;;;0.70;0.70;;;;;;;4.00;100.00;99329.69;5016790;28;20048;-75
2022/12/20 09:32:57;;;;;;;0.60;0.60;;;;;;;4.08;100.00;99343.00;5016899;28;20029;-75
2022/12/20 09:35:22;;;;;;;0.50;0.50;;;;;;;4.12;100.00;99344.28;5000812;28;20029;-75
2022/12/20 09:37:48;;;;;;;0.52;0.52;;;;;;;4.27;100.00;99339.13;5032735;28;20029;-75
2022/12/20 09:40:18;;;;;;;0.40;0.40;;;;;;;4.46;100.00;99337.06;5016756;28;20036;-75
2022/12/20 09:42:44;;;;;;;2.95;0.77;;;;;;;4.58;100.00;99333.06;5032733;28;20061;-75
2022/12/20 09:45:23;;;;;;;0.60;0.60;;;;;;;4.74;100.00;99337.47;5000031;28;20115;-75
2022/12/20 09:47:51;;;;;;;0.50;0.50;;;;;;;4.70;100.00;99344.16;5000864;28;20047;-78
2022/12/20 09:50:18;;;;;;;0.60;0.60;;;;;;;4.89;100.00;99340.22;5033005;28;20187;-78
2022/12/20 09:52:59;;;;;;;0.55;0.55;;;;;;;5.32;100.00;99349.50;5000273;28;20037;-78
2022/12/20 09:55:40;;;;;;;0.60;0.60;;;;;;;5.61;100.00;99348.78;5000278;28;20128;-78
2022/12/20 09:58:46;;;;;;;0.60;0.60;;;;;;;5.94;100.00;99335.19;5000472;28;20536;-78
2022/12/20 10:01:19;;;;;;;0.60;0.60;;;;;;;5.97;100.00;99344.69;5025210;28;20483;-78
2022/12/20 10:03:44;;;;;;;0.73;0.73;;;;;;;6.00;100.00;99339.81;5000093;28;20034;-78
2022/12/20 10:06:24;;;;;;;0.60;0.60;;;;;;;6.04;100.00;99314.44;5032777;28;20148;-78
2022/12/20 10:08:54;;;;;;;2.20;0.60;;;;;;;5.87;100.00;99364.38;5032139;28;20038;-78
2022/12/20 10:11:33;;;;;;;2.70;0.90;;;;;;;5.63;100.00;99349.41;5016118;28;20090;-79
2022/12/20 10:14:13;;;;;;;0.60;0.60;;;;;;;6.32;100.00;99362.69;5032353;28;20039;-77
2022/12/20 10:16:44;;;;;;;0.95;0.90;;;;;;;7.28;100.00;99335.97;5032602;28;20063;-79
2022/12/20 10:19:47;;;;;;;2.03;0.80;;;;;;;6.72;100.00;99362.41;5015951;28;20439;-79
2022/12/20 10:22:16;;;;;;;0.50;0.50;;;;;;;6.51;100.00;99366.66;5015696;28;20040;-79
2022/12/20 10:24:47;;;;;;;3.70;1.10;;;;;;;6.29;100.00;99372.91;5033480;28;20033;-80
2022/12/20 10:27:19;;;;;;;1.08;0.70;;;;;;;6.16;100.00;99377.00;4999548;28;20124;-79
2022/12/20 10:29:46;;;;;;;1.08;0.95;;;;;;;7.10;100.00;99373.81;5015659;28;20399;-79
2022/12/20 10:32:17;;;;;;;2.00;1.02;;;;;;;8.35;100.00;99378.69;4999748;28;20025;-79
2022/12/20 10:35:09;;;;;;;0.90;0.90;;;;;;;9.09;100.00;99376.47;5031922;28;20384;-76
2022/12/20 10:37:35;;;;;;;3.13;1.70;;;;;;;9.58;100.00;99397.69;5012612;28;20111;-77
2022/12/20 10:40:00;;;;;;;2.25;1.20;;;;;;;9.74;100.00;99376.84;5015416;28;20472;-76
2022/12/20 10:42:36;;;;;;;3.25;2.13;;;;;;;9.48;100.00;99375.78;5031631;28;20029;-76
2022/12/20 10:45:25;;;;;;;3.65;1.30;;;;;;;9.12;100.00;99374.22;5031595;28;20407;-78
2022/12/20 10:47:58;;;;;;;11.88;2.75;;;;;;;9.36;100.00;99391.63;5015084;28;20041;-77
2022/12/20 10:50:24;;;;;;;6.38;2.10;;;;;;;9.81;100.00;99393.81;5016101;28;20026;-76
2022/12/20 10:53:10;;;;;;;4.13;1.55;;;;;;;10.10;100.00;99396.09;5031668;28;20030;-77
2022/12/20 10:55:41;;;;;;;5.35;2.25;;;;;;;10.17;100.00;99385.38;5031658;28;20026;-76
2022/12/20 10:58:35;;;;;;;8.30;2.78;;;;;;;10.20;100.00;99400.25;5015088;28;20705;-77
2022/12/20 11:01:16;;;;;;;4.70;1.90;;;;;;;10.43;98.64;99391.81;4999353;28;20034;-77
2022/12/20 11:03:52;;;;;;;10.35;2.28;;;;;;;10.23;100.00;99386.41;4998757;28;20140;-76
2022/12/20 11:06:19;;;;;;;3.22;1.60;;;;;;;10.25;100.00;99395.09;5032822;28;20032;-77
2022/12/20 11:08:47;;;;;;;9.63;1.35;;;;;;;9.56;100.00;99399.75;4999321;28;20029;-76
2022/12/20 11:11:15;;;;;;;4.20;1.55;;;;;;;9.34;100.00;99404.44;5031592;28;20055;-77
2022/12/20 11:13:42;;;;;;;6.00;1.85;;;;;;;8.31;100.00;99401.56;5015649;28;20117;-77
2022/12/20 11:16:27;;;;;;;5.97;2.08;;;;;;;7.29;100.00;99425.84;5031515;28;20030;-77
2022/12/20 11:19:35;;;;;;;7.15;1.05;;;;;;;6.44;100.00;99424.47;4999180;28;20076;-76
2022/12/20 11:22:06;;;;;;;0.60;0.60;;;;;;;5.99;100.00;99418.19;5017682;28;20044;-75
2022/12/20 11:24:52;;;;;;;2.97;0.88;;;;;;;5.74;100.00;99409.50;5018977;28;20083;-75
2022/12/20 11:27:39;;;;;;;0.50;0.50;;;;;;;5.51;100.00;99406.84;5018065;28;20069;-76
2022/12/20 11:30:05;;;;;;;1.27;0.82;;;;;;;5.59;100.00;99408.63;5002685;28;20108;-76
2022/12/20 11:32:54;;;;;;;1.10;1.00;;;;;;;6.22;100.00;99410.19;5018957;28;20456;-75
2022/12/20 11:35:46;;;;;;;1.85;0.85;;;;;;;7.63;100.00;99405.66;5034998;28;20026;-76
2022/12/20 11:38:27;;;;;;;0.77;0.77;;;;;;;9.07;100.00;99410.69;5017130;28;20133;-76
2022/12/20 11:41:09;;;;;;;0.77;0.77;;;;;;;9.44;100.00;99398.66;5018419;28;20042;-76
2022/12/20 11:43:57;;;;;;;0.68;0.68;;;;;;;8.80;100.00;99391.78;5018473;28;20410;-77
2022/12/20 11:46:25;;;;;;;1.17;0.70;;;;;;;7.75;100.00;99403.31;5018515;28;20072;-77
2022/12/20 11:49:12;;;;;;;0.50;0.50;;;;;;;7.13;100.00;99396.66;5018532;28;20044;-76
2022/12/20 11:51:46;;;;;;;1.70;0.82;;;;;;;7.54;100.00;99388.06;5018192;28;20046;-76
2022/12/20 11:54:39;;;;;;;0.50;0.50;;;;;;;8.08;100.00;99392.91;5018579;28;20033;-76
2022/12/20 11:57:13;;;;;;;0.52;0.52;;;;;;;7.77;100.00;99350.44;5002184;28;20034;-76
2022/12/20 11:59:44;;;;;;;1.10;1.00;;;;;;;8.18;100.00;99382.72;5051347;28;20045;-76